createdAt,value
2022-08-25T00:02:00.991Z,100.00
2022-08-25T00:04:30.147Z,100.00
2022-08-25T00:07:02.213Z,100.00
2022-08-25T00:09:30.803Z,100.00
2022-08-25T00:11:58.568Z,100.00
2022-08-25T00:14:29.269Z,100.00
2022-08-25T00:16:56.640Z,100.00
2022-08-25T00:19:27.428Z,100.00
2022-08-25T00:21:55.894Z,100.00
2022-08-25T00:24:23.478Z,100.00
2022-08-25T00:26:54.115Z,100.00
2022-08-25T00:29:22.394Z,100.00
2022-08-25T00:31:49.333Z,100.00
2022-08-25T00:34:26.231Z,100.00
2022-08-25T00:36:53.194Z,100.00
2022-08-25T00:39:22.002Z,100.00
2022-08-25T00:41:50.382Z,100.00
2022-08-25T00:44:18.440Z,100.00
2022-08-25T00:46:52.489Z,100.00
2022-08-25T00:49:42.500Z,100.00
2022-08-25T00:52:12.474Z,100.00
2022-08-25T00:54:42.250Z,100.00
2022-08-25T00:57:12.937Z,100.00
2022-08-25T00:59:40.693Z,100.00
2022-08-25T01:02:10.275Z,100.00
2022-08-25T01:04:44.723Z,100.00
2022-08-25T01:07:18.720Z,100.00
2022-08-25T01:09:48.209Z,100.00
2022-08-25T01:12:15.398Z,100.00
2022-08-25T01:14:43.139Z,100.00
2022-08-25T01:17:10.507Z,100.00
2022-08-25T01:19:37.556Z,100.00
2022-08-25T01:22:05.678Z,100.00
2022-08-25T01:24:52.776Z,100.00
2022-08-25T01:27:19.585Z,100.00
2022-08-25T01:29:46.486Z,100.00
2022-08-25T01:32:14.917Z,100.00
2022-08-25T01:34:44.411Z,100.00
2022-08-25T01:37:14.027Z,100.00
2022-08-25T01:39:41.777Z,100.00
2022-08-25T01:42:18.050Z,100.00
2022-08-25T01:44:46.145Z,100.00
2022-08-25T01:47:14.128Z,100.00
2022-08-25T01:49:41.065Z,100.00
2022-08-25T01:52:33.393Z,100.00
2022-08-25T01:55:00.310Z,100.00
2022-08-25T01:57:30.195Z,100.00
2022-08-25T01:59:57.934Z,100.00
2022-08-25T02:02:26.271Z,100.00
2022-08-25T02:04:53.422Z,100.00
2022-08-25T02:07:20.416Z,100.00
2022-08-25T02:09:47.486Z,100.00
2022-08-25T02:12:15.460Z,100.00
2022-08-25T02:14:42.384Z,100.00
2022-08-25T02:17:09.816Z,100.00
2022-08-25T02:19:36.790Z,100.00
2022-08-25T02:22:04.409Z,100.00
2022-08-25T02:24:31.652Z,100.00
2022-08-25T02:26:59.395Z,100.00
2022-08-25T02:29:26.463Z,100.00
2022-08-25T02:31:53.292Z,100.00
2022-08-25T02:34:20.180Z,100.00
2022-08-25T02:36:47.060Z,100.00
2022-08-25T02:39:13.944Z,100.00
2022-08-25T02:41:40.952Z,100.00
2022-08-25T02:44:08.626Z,100.00
2022-08-25T02:46:36.641Z,100.00
2022-08-25T02:49:05.001Z,100.00
2022-08-25T02:51:33.617Z,100.00
2022-08-25T02:54:02.388Z,100.00
2022-08-25T02:56:30.659Z,100.00
2022-08-25T02:58:57.788Z,100.00
2022-08-25T03:01:28.646Z,100.00
2022-08-25T03:03:56.189Z,100.00
2022-08-25T03:06:24.263Z,100.00
2022-08-25T03:08:52.546Z,100.00
2022-08-25T03:11:19.761Z,100.00
2022-08-25T03:13:46.828Z,100.00
2022-08-25T03:16:14.562Z,100.00
2022-08-25T03:18:42.352Z,100.00
2022-08-25T03:21:11.474Z,100.00
2022-08-25T03:23:40.048Z,100.00
2022-08-25T03:26:25.834Z,100.00
2022-08-25T03:28:54.772Z,100.00
2022-08-25T03:31:23.079Z,100.00
2022-08-25T03:33:49.986Z,100.00
2022-08-25T03:36:16.862Z,100.00
2022-08-25T03:38:43.739Z,100.00
2022-08-25T03:41:18.629Z,100.00
2022-08-25T03:43:45.456Z,100.00
2022-08-25T03:46:27.197Z,100.00
2022-08-25T03:48:54.555Z,100.00
2022-08-25T03:51:26.493Z,100.00
2022-08-25T03:53:53.680Z,100.00
2022-08-25T03:56:20.630Z,100.00
2022-08-25T03:58:47.892Z,100.00
2022-08-25T04:01:16.057Z,100.00
2022-08-25T04:03:45.586Z,100.00
2022-08-25T04:06:13.282Z,100.00
2022-08-25T04:08:40.205Z,100.00
2022-08-25T04:11:15.697Z,100.00
2022-08-25T04:13:42.624Z,100.00
2022-08-25T04:16:14.329Z,100.00
2022-08-25T04:18:42.409Z,100.00
2022-08-25T04:21:10.566Z,100.00
2022-08-25T04:23:38.509Z,100.00
2022-08-25T04:26:13.603Z,100.00
2022-08-25T04:28:40.989Z,100.00
2022-08-25T04:31:09.461Z,100.00
2022-08-25T04:33:37.129Z,100.00
2022-08-25T04:36:11.469Z,100.00
2022-08-25T04:38:40.251Z,100.00
2022-08-25T04:41:07.968Z,100.00
2022-08-25T04:43:36.352Z,100.00
2022-08-25T04:46:08.550Z,100.00
2022-08-25T04:48:37.013Z,100.00
2022-08-25T04:51:10.061Z,100.00
2022-08-25T04:53:37.614Z,100.00
2022-08-25T04:56:14.385Z,92.50
2022-08-25T04:58:42.090Z,88.67
2022-08-25T05:01:17.764Z,89.95
2022-08-25T05:03:46.727Z,88.17
2022-08-25T05:06:16.277Z,84.05
2022-08-25T05:08:45.658Z,80.16
2022-08-25T05:11:14.911Z,75.82
2022-08-25T05:13:43.123Z,73.62
2022-08-25T05:16:11.577Z,71.66
2022-08-25T05:18:38.899Z,72.05
2022-08-25T05:21:08.339Z,72.47
2022-08-25T05:23:36.180Z,71.27
2022-08-25T05:26:16.527Z,71.45
2022-08-25T05:28:47.452Z,69.01
2022-08-25T05:31:14.944Z,71.52
2022-08-25T05:33:42.341Z,72.38
2022-08-25T05:36:10.905Z,73.93
2022-08-25T05:38:38.069Z,74.58
2022-08-25T05:41:10.624Z,74.19
2022-08-25T05:43:39.843Z,75.16
2022-08-25T05:46:08.143Z,77.76
2022-08-25T05:48:35.536Z,77.80
2022-08-25T05:51:03.821Z,78.27
2022-08-25T05:53:31.133Z,79.00
2022-08-25T05:56:01.155Z,79.29
2022-08-25T05:58:30.068Z,78.18
2022-08-25T06:00:58.310Z,78.22
2022-08-25T06:03:25.311Z,78.61
2022-08-25T06:05:52.208Z,77.99
2022-08-25T06:08:19.578Z,78.15
2022-08-25T06:10:52.535Z,78.51
2022-08-25T06:13:19.386Z,77.86
2022-08-25T06:15:59.805Z,77.37
2022-08-25T06:18:27.181Z,76.67
2022-08-25T06:20:54.004Z,76.82
2022-08-25T06:23:20.885Z,75.80
2022-08-25T06:25:54.404Z,75.97
2022-08-25T06:28:21.327Z,74.38
2022-08-25T06:30:48.245Z,76.27
2022-08-25T06:33:15.626Z,76.09
2022-08-25T06:35:43.708Z,75.16
2022-08-25T06:38:11.361Z,74.23
2022-08-25T06:40:38.670Z,76.16
2022-08-25T06:43:08.874Z,76.03
2022-08-25T06:45:35.748Z,73.95
2022-08-25T06:48:02.887Z,72.70
2022-08-25T06:50:29.845Z,72.16
2022-08-25T06:52:57.069Z,71.66
2022-08-25T06:55:24.049Z,70.99
2022-08-25T06:57:54.074Z,71.00
2022-08-25T07:00:22.953Z,70.14
2022-08-25T07:02:58.578Z,70.07
2022-08-25T07:05:33.607Z,69.85
2022-08-25T07:08:07.657Z,69.71
2022-08-25T07:10:34.559Z,71.26
2022-08-25T07:13:03.625Z,71.39
2022-08-25T07:15:30.416Z,70.06
2022-08-25T07:17:57.862Z,69.18
2022-08-25T07:22:56.983Z,68.37
2022-08-25T07:25:24.412Z,68.97
2022-08-25T07:27:53.853Z,67.97
2022-08-25T07:30:24.052Z,67.54
2022-08-25T07:32:54.905Z,66.52
2022-08-25T07:35:26.450Z,66.32
2022-08-25T07:38:04.575Z,64.56
2022-08-25T07:40:34.271Z,66.14
2022-08-25T07:43:05.352Z,65.13
2022-08-25T07:45:37.064Z,64.76
2022-08-25T07:48:14.368Z,64.24
2022-08-25T07:50:46.185Z,64.30
2022-08-25T07:53:14.368Z,66.10
2022-08-25T07:55:41.968Z,66.98
2022-08-25T07:58:12.364Z,66.40
2022-08-25T08:00:40.578Z,65.39
2022-08-25T08:03:19.748Z,64.09
2022-08-25T08:05:57.451Z,64.92
2022-08-25T08:08:24.450Z,63.84
2022-08-25T08:11:04.700Z,62.94
2022-08-25T08:13:35.770Z,62.47
2022-08-25T08:16:09.836Z,60.74
2022-08-25T08:18:38.294Z,60.69
2022-08-25T08:21:05.618Z,59.16
2022-08-25T08:23:33.553Z,59.09
2022-08-25T08:26:00.774Z,58.22
2022-08-25T08:28:28.137Z,60.25
2022-08-25T08:30:55.080Z,60.36
2022-08-25T08:33:24.196Z,59.52
2022-08-25T08:35:59.037Z,60.30
2022-08-25T08:38:27.108Z,58.44
2022-08-25T08:42:09.507Z,58.24
2022-08-25T08:44:59.205Z,56.30
2022-08-25T08:47:41.909Z,56.90
2022-08-25T08:50:27.635Z,55.64
2022-08-25T08:53:11.918Z,54.05
2022-08-25T08:55:48.328Z,53.80
2022-08-25T08:58:35.519Z,53.39
2022-08-25T09:01:03.361Z,52.26
2022-08-25T09:03:55.307Z,52.29
2022-08-25T09:06:49.609Z,53.36
2022-08-25T09:09:29.246Z,54.34
2022-08-25T09:11:58.737Z,52.88
2022-08-25T09:14:41.520Z,53.34
2022-08-25T09:17:23.199Z,53.05
2022-08-25T09:19:53.452Z,52.79
2022-08-25T09:22:35.478Z,50.50
2022-08-25T09:25:48.702Z,51.71
2022-08-25T09:28:18.759Z,50.63
2022-08-25T09:31:00.886Z,50.94
2022-08-25T09:33:29.448Z,49.82
2022-08-25T09:35:57.689Z,50.14
2022-08-25T09:38:26.711Z,47.55
2022-08-25T09:41:00.922Z,48.71
2022-08-25T09:43:32.045Z,49.36
2022-08-25T09:46:12.697Z,48.98
2022-08-25T09:48:44.821Z,48.81
2022-08-25T09:51:37.959Z,48.27
2022-08-25T09:54:15.728Z,50.65
2022-08-25T09:56:57.683Z,50.99
2022-08-25T09:59:34.909Z,49.10
2022-08-25T10:02:25.813Z,47.26
2022-08-25T10:04:53.222Z,49.62
2022-08-25T10:07:26.867Z,48.66
2022-08-25T10:10:03.022Z,47.49
2022-08-25T10:12:36.547Z,46.39
2022-08-25T10:15:29.422Z,49.03
2022-08-25T10:18:25.817Z,47.88
2022-08-25T10:21:12.632Z,47.96
2022-08-25T10:23:46.415Z,46.33
2022-08-25T10:26:27.875Z,47.20
2022-08-25T10:29:06.989Z,45.91
2022-08-25T10:31:45.517Z,43.62
2022-08-25T10:34:40.253Z,45.77
2022-08-25T10:37:19.299Z,44.42
2022-08-25T10:40:02.840Z,43.83
2022-08-25T10:42:31.322Z,42.39
2022-08-25T10:45:32.311Z,42.42
2022-08-25T10:48:20.443Z,41.80
2022-08-25T10:51:14.587Z,40.28
2022-08-25T10:53:56.224Z,41.14
2022-08-25T10:56:28.014Z,40.21
2022-08-25T10:59:13.667Z,41.00
2022-08-25T11:01:57.015Z,43.84
2022-08-25T11:04:45.271Z,43.13
2022-08-25T11:07:23.263Z,42.60
2022-08-25T11:09:53.271Z,41.34
2022-08-25T11:12:46.110Z,41.04
2022-08-25T11:15:23.141Z,40.38
2022-08-25T11:18:04.331Z,41.55
2022-08-25T11:21:08.659Z,41.52
2022-08-25T11:23:36.862Z,40.68
2022-08-25T11:26:14.089Z,41.26
2022-08-25T11:29:06.035Z,41.52
2022-08-25T11:31:40.976Z,40.90
2022-08-25T11:34:15.226Z,42.19
2022-08-25T11:36:53.163Z,42.74
2022-08-25T11:39:55.028Z,41.93
2022-08-25T11:42:29.223Z,42.54
2022-08-25T11:45:38.001Z,42.82
2022-08-25T11:48:42.570Z,40.65
2022-08-25T11:51:12.971Z,41.20
2022-08-25T11:53:42.529Z,40.17
2022-08-25T11:56:12.652Z,41.11
2022-08-25T11:58:40.639Z,41.92
2022-08-25T12:01:40.162Z,40.99
2022-08-25T12:04:42.183Z,40.93
2022-08-25T12:07:13.645Z,41.36
2022-08-25T12:09:50.069Z,41.67
2022-08-25T12:12:41.483Z,40.44
2022-08-25T12:15:28.031Z,40.86
2022-08-25T12:18:45.573Z,40.57
2022-08-25T12:21:14.409Z,39.81
2022-08-25T12:24:10.908Z,40.41
2022-08-25T12:26:46.057Z,39.93
2022-08-25T12:29:21.444Z,38.65
2022-08-25T12:31:59.175Z,39.19
2022-08-25T12:34:31.553Z,39.55
2022-08-25T12:37:06.388Z,40.38
2022-08-25T12:39:37.819Z,39.44
2022-08-25T12:42:06.927Z,39.86
2022-08-25T12:44:40.287Z,39.41
2022-08-25T12:47:23.455Z,40.09
2022-08-25T12:49:50.919Z,39.77
2022-08-25T12:52:28.111Z,40.02
2022-08-25T12:54:59.908Z,39.90
2022-08-25T12:57:43.599Z,40.38
2022-08-25T13:00:23.637Z,40.30
2022-08-25T13:03:32.271Z,40.01
2022-08-25T13:06:23.821Z,39.66
2022-08-25T13:09:17.326Z,39.73
2022-08-25T13:11:53.859Z,39.30
2022-08-25T13:17:05.437Z,39.67
2022-08-25T13:19:34.587Z,40.07
2022-08-25T13:22:16.379Z,40.44
2022-08-25T13:24:47.312Z,40.20
2022-08-25T13:27:27.935Z,40.34
2022-08-25T13:29:59.855Z,40.30
2022-08-25T13:32:35.103Z,39.79
2022-08-25T13:35:14.903Z,40.38
2022-08-25T13:37:44.701Z,40.06
2022-08-25T13:40:18.794Z,39.74
2022-08-25T13:42:55.960Z,39.22
2022-08-25T13:45:26.779Z,39.60
2022-08-25T13:47:55.911Z,40.49
2022-08-25T13:50:26.461Z,39.63
2022-08-25T13:53:07.095Z,39.98
2022-08-25T13:55:50.886Z,39.46
2022-08-25T13:58:38.531Z,41.63
2022-08-25T14:01:22.181Z,41.94
2022-08-25T14:04:24.251Z,41.99
2022-08-25T14:07:22.384Z,42.24
2022-08-25T14:10:10.604Z,42.17
2022-08-25T14:12:45.099Z,42.78
2022-08-25T14:15:17.937Z,42.01
2022-08-25T14:17:49.108Z,41.82
2022-08-25T14:20:22.352Z,41.60
2022-08-25T14:22:54.040Z,41.89
2022-08-25T14:25:20.852Z,41.98
2022-08-25T14:28:07.540Z,42.13
2022-08-25T14:30:36.894Z,41.29
2022-08-25T14:33:04.038Z,42.16
2022-08-25T14:35:31.823Z,42.09
2022-08-25T14:37:58.708Z,42.76
2022-08-25T14:40:25.658Z,42.43
2022-08-25T14:42:52.636Z,42.70
2022-08-25T14:45:19.689Z,42.40
2022-08-25T14:47:49.734Z,41.54
2022-08-25T14:50:20.044Z,42.88
2022-08-25T14:52:48.352Z,43.34
2022-08-25T14:55:31.259Z,43.56
2022-08-25T14:57:58.981Z,43.81
2022-08-25T15:00:26.322Z,44.28
2022-08-25T15:02:54.892Z,44.30
2022-08-25T15:05:25.723Z,44.92
2022-08-25T15:08:13.291Z,45.30
2022-08-25T15:10:40.763Z,46.05
2022-08-25T15:13:08.649Z,46.08
2022-08-25T15:15:39.422Z,46.79
2022-08-25T15:18:20.540Z,46.55
2022-08-25T15:20:47.639Z,46.75
2022-08-25T15:23:18.626Z,47.12
2022-08-25T15:25:46.789Z,47.21
2022-08-25T15:28:17.431Z,47.82
2022-08-25T15:30:45.826Z,48.08
2022-08-25T15:33:13.939Z,48.06
2022-08-25T15:35:41.122Z,47.99
2022-08-25T15:38:08.370Z,48.63
2022-08-25T15:40:37.683Z,48.38
2022-08-25T15:43:05.740Z,48.41
2022-08-25T15:45:36.080Z,48.82
2022-08-25T15:48:06.727Z,49.36
2022-08-25T15:50:36.290Z,49.83
2022-08-25T15:53:03.297Z,49.93
2022-08-25T15:55:30.446Z,49.81
2022-08-25T15:58:00.810Z,49.85
2022-08-25T16:00:27.727Z,50.09
2022-08-25T16:02:58.759Z,50.07
2022-08-25T16:05:26.271Z,50.55
2022-08-25T16:07:54.041Z,50.53
2022-08-25T16:10:21.124Z,50.81
2022-08-25T16:12:48.802Z,50.61
2022-08-25T16:15:16.071Z,50.29
2022-08-25T16:17:45.948Z,49.86
2022-08-25T16:20:17.289Z,50.04
2022-08-25T16:22:45.124Z,50.35
2022-08-25T16:25:12.154Z,50.84
2022-08-25T16:27:39.305Z,51.17
2022-08-25T16:30:14.935Z,51.54
2022-08-25T16:32:44.118Z,51.81
2022-08-25T16:35:11.459Z,51.84
2022-08-25T16:37:38.334Z,52.41
2022-08-25T16:40:08.353Z,52.47
2022-08-25T16:42:35.631Z,53.06
2022-08-25T16:45:02.493Z,53.77
2022-08-25T16:47:37.109Z,54.71
2022-08-25T16:50:08.924Z,55.04
2022-08-25T16:52:56.542Z,55.64
2022-08-25T16:55:25.745Z,56.01
2022-08-25T16:57:54.315Z,56.41
2022-08-25T17:00:23.955Z,56.84
2022-08-25T17:02:54.991Z,57.43
2022-08-25T17:05:21.994Z,57.91
2022-08-25T17:08:09.079Z,58.48
2022-08-25T17:10:39.494Z,58.82
2022-08-25T17:13:06.801Z,59.23
2022-08-25T17:15:34.180Z,59.53
2022-08-25T17:18:01.062Z,59.73
2022-08-25T17:20:29.137Z,59.93
2022-08-25T17:22:55.998Z,60.17
2022-08-25T17:25:22.872Z,60.41
2022-08-25T17:27:54.462Z,60.68
2022-08-25T17:30:21.313Z,61.08
2022-08-25T17:32:50.972Z,61.19
2022-08-25T17:35:18.026Z,61.50
2022-08-25T17:37:45.350Z,61.71
2022-08-25T17:40:17.501Z,61.76
2022-08-25T17:42:44.952Z,61.92
2022-08-25T17:45:11.817Z,62.00
2022-08-25T17:47:38.733Z,62.21
2022-08-25T17:50:06.180Z,62.44
2022-08-25T17:52:33.371Z,62.79
2022-08-25T17:55:00.179Z,63.03
2022-08-25T17:57:27.491Z,63.15
2022-08-25T17:59:54.420Z,63.22
2022-08-25T18:02:21.314Z,63.39
2022-08-25T18:04:48.678Z,63.38
2022-08-25T18:07:15.516Z,63.57
2022-08-25T18:09:44.129Z,63.71
2022-08-25T18:12:12.594Z,63.95
2022-08-25T18:14:39.455Z,64.02
2022-08-25T18:17:06.397Z,64.37
2022-08-25T18:19:33.629Z,64.85
2022-08-25T18:22:04.307Z,65.17
2022-08-25T18:24:31.310Z,65.88
2022-08-25T18:26:58.914Z,66.29
2022-08-25T18:29:26.170Z,66.65
2022-08-25T18:31:58.325Z,66.69
2022-08-25T18:34:27.293Z,67.10
2022-08-25T18:36:58.790Z,67.08
2022-08-25T18:39:44.179Z,67.86
2022-08-25T18:42:11.296Z,68.17
2022-08-25T18:44:38.355Z,70.37
2022-08-25T18:47:07.473Z,69.72
2022-08-25T18:49:35.194Z,70.70
2022-08-25T18:52:02.044Z,72.23
2022-08-25T18:54:28.855Z,71.64
2022-08-25T18:56:57.206Z,71.77
2022-08-25T18:59:24.328Z,72.79
2022-08-25T19:01:53.743Z,72.05
2022-08-25T19:04:20.810Z,72.16
2022-08-25T19:06:55.492Z,74.38
2022-08-25T19:09:22.572Z,73.85
2022-08-25T19:11:49.500Z,73.91
2022-08-25T19:14:16.720Z,74.31
2022-08-25T19:16:45.410Z,74.83
2022-08-25T19:19:13.590Z,75.50
2022-08-25T19:21:41.970Z,77.19
2022-08-25T19:24:11.588Z,76.41
2022-08-25T19:26:39.638Z,76.22
2022-08-25T19:29:10.908Z,76.11
2022-08-25T19:31:39.285Z,75.98
2022-08-25T19:34:07.327Z,76.17
2022-08-25T19:36:34.224Z,76.50
2022-08-25T19:39:01.519Z,76.07
2022-08-25T19:41:31.223Z,76.96
2022-08-25T19:43:59.459Z,77.51
2022-08-25T19:46:32.757Z,78.85
2022-08-25T19:49:09.019Z,78.75
2022-08-25T19:51:45.274Z,80.81
2022-08-25T19:54:14.449Z,80.76
2022-08-25T19:56:43.947Z,81.51
2022-08-25T19:59:40.698Z,80.79
2022-08-25T20:02:19.238Z,80.47
2022-08-25T20:04:49.245Z,81.01
2022-08-25T20:07:19.001Z,80.57
2022-08-25T20:09:46.042Z,80.53
2022-08-25T20:14:46.781Z,80.77
2022-08-25T20:17:24.026Z,80.61
2022-08-25T20:19:55.449Z,80.00
2022-08-25T20:22:26.114Z,80.10
2022-08-25T20:24:58.090Z,80.24
2022-08-25T20:27:47.032Z,80.30
2022-08-25T20:30:18.304Z,80.48
2022-08-25T20:32:45.855Z,79.98
2022-08-25T20:35:14.374Z,80.08
2022-08-25T20:37:44.135Z,80.68
2022-08-25T20:40:13.626Z,81.59
2022-08-25T20:42:40.934Z,80.98
2022-08-25T20:45:11.256Z,81.04
2022-08-25T20:47:38.266Z,81.57
2022-08-25T20:50:07.410Z,81.76
2022-08-25T20:52:34.627Z,82.08
2022-08-25T20:55:01.978Z,81.69
2022-08-25T20:57:28.911Z,81.86
2022-08-25T20:59:56.982Z,81.44
2022-08-25T21:02:24.417Z,82.21
2022-08-25T21:04:52.150Z,82.08
2022-08-25T21:07:19.916Z,82.22
2022-08-25T21:09:47.854Z,82.19
2022-08-25T21:12:14.908Z,82.07
2022-08-25T21:14:43.848Z,81.82
2022-08-25T21:17:15.454Z,82.41
2022-08-25T21:22:18.587Z,82.42
2022-08-25T21:24:45.986Z,82.30
2022-08-25T21:27:13.329Z,82.80
2022-08-25T21:29:50.678Z,82.86
2022-08-25T21:32:22.288Z,83.56
2022-08-25T21:34:56.230Z,83.14
2022-08-25T21:37:24.202Z,83.88
2022-08-25T21:39:51.936Z,84.13
2022-08-25T21:42:20.528Z,83.72
2022-08-25T21:44:47.448Z,83.91
2022-08-25T21:47:14.261Z,84.28
2022-08-25T21:49:41.558Z,84.69
2022-08-25T21:52:08.457Z,84.36
2022-08-25T21:54:35.379Z,84.32
2022-08-25T21:57:04.417Z,84.15
2022-08-25T21:59:33.979Z,84.15
2022-08-25T22:02:03.916Z,84.20
2022-08-25T22:04:32.015Z,84.92
2022-08-25T22:06:59.598Z,84.79
2022-08-25T22:09:28.258Z,84.80
2022-08-25T22:11:55.923Z,84.82
2022-08-25T22:14:23.853Z,85.28
2022-08-25T22:16:54.169Z,84.89
2022-08-25T22:19:21.559Z,85.48
2022-08-25T22:21:50.978Z,84.77
2022-08-25T22:24:18.886Z,85.14
2022-08-25T22:26:47.721Z,85.49
2022-08-25T22:29:25.185Z,84.84
2022-08-25T22:31:59.641Z,84.73
2022-08-25T22:34:32.673Z,85.06
2022-08-25T22:37:04.604Z,84.43
2022-08-25T22:39:34.283Z,84.63
2022-08-25T22:42:02.831Z,84.54
2022-08-25T22:44:30.104Z,85.52
2022-08-25T22:46:57.013Z,85.48
2022-08-25T22:49:23.894Z,85.49
2022-08-25T22:51:51.109Z,85.80
2022-08-25T22:54:20.609Z,85.08
2022-08-25T22:56:47.437Z,85.30
2022-08-25T22:59:14.646Z,85.29
2022-08-25T23:01:43.857Z,85.62
2022-08-25T23:04:11.095Z,85.68
2022-08-25T23:06:38.267Z,85.35
2022-08-25T23:09:07.393Z,85.24
2022-08-25T23:11:35.694Z,86.15
2022-08-25T23:14:08.312Z,86.78
2022-08-25T23:16:35.425Z,86.19
2022-08-25T23:19:02.302Z,86.37
2022-08-25T23:21:47.747Z,87.22
2022-08-25T23:24:29.917Z,88.35
2022-08-25T23:27:02.937Z,88.08
2022-08-25T23:29:31.846Z,88.26
2022-08-25T23:31:58.963Z,88.05
2022-08-25T23:34:26.302Z,87.39
2022-08-25T23:36:53.445Z,86.81
2022-08-25T23:39:21.801Z,87.37
2022-08-25T23:41:49.895Z,87.45
2022-08-25T23:44:18.763Z,87.38
2022-08-25T23:46:47.191Z,86.95
2022-08-25T23:49:18.381Z,87.00
2022-08-25T23:51:47.471Z,87.25
2022-08-25T23:54:14.771Z,87.23
2022-08-25T23:56:44.842Z,86.94
2022-08-25T23:59:24.770Z,87.05
